sensor_id;sensor_type;location;lat;lon;timestamp;P1;durP1;ratioP1;P2;durP2;ratioP2
11839;SDS011;5979;50.800;4.904;2022-07-23T00:01:42;8.07;;;7.38;;
11839;SDS011;5979;50.800;4.904;2022-07-23T00:04:07;7.97;;;7.18;;
11839;SDS011;5979;50.800;4.904;2022-07-23T00:06:33;7.57;;;6.78;;
11839;SDS011;5979;50.800;4.904;2022-07-23T00:08:58;6.60;;;6.00;;
11839;SDS011;5979;50.800;4.904;2022-07-23T00:11:24;6.70;;;6.10;;
11839;SDS011;5979;50.800;4.904;2022-07-23T00:13:50;6.93;;;6.20;;
11839;SDS011;5979;50.800;4.904;2022-07-23T00:16:15;7.57;;;6.97;;
11839;SDS011;5979;50.800;4.904;2022-07-23T00:18:41;7.18;;;6.60;;
11839;SDS011;5979;50.800;4.904;2022-07-23T00:21:07;7.82;;;7.13;;
11839;SDS011;5979;50.800;4.904;2022-07-23T00:23:32;7.13;;;6.43;;
11839;SDS011;5979;50.800;4.904;2022-07-23T00:25:58;7.80;;;6.72;;
11839;SDS011;5979;50.800;4.904;2022-07-23T00:28:24;6.40;;;5.80;;
11839;SDS011;5979;50.800;4.904;2022-07-23T00:30:50;7.15;;;6.55;;
11839;SDS011;5979;50.800;4.904;2022-07-23T00:33:15;7.22;;;6.60;;
11839;SDS011;5979;50.800;4.904;2022-07-23T00:35:41;7.75;;;7.05;;
11839;SDS011;5979;50.800;4.904;2022-07-23T00:38:08;8.55;;;7.47;;
11839;SDS011;5979;50.800;4.904;2022-07-23T00:40:35;9.50;;;7.72;;
11839;SDS011;5979;50.800;4.904;2022-07-23T00:43:02;7.07;;;6.38;;
11839;SDS011;5979;50.800;4.904;2022-07-23T00:45:29;9.18;;;6.82;;
11839;SDS011;5979;50.800;4.904;2022-07-23T00:47:54;8.95;;;7.57;;
11839;SDS011;5979;50.800;4.904;2022-07-23T00:50:20;7.50;;;6.70;;
11839;SDS011;5979;50.800;4.904;2022-07-23T00:52:46;8.32;;;6.63;;
11839;SDS011;5979;50.800;4.904;2022-07-23T00:55:12;7.40;;;6.65;;
11839;SDS011;5979;50.800;4.904;2022-07-23T00:57:38;8.63;;;7.03;;
11839;SDS011;5979;50.800;4.904;2022-07-23T01:00:05;8.75;;;6.82;;
11839;SDS011;5979;50.800;4.904;2022-07-23T01:02:32;9.68;;;5.55;;
11839;SDS011;5979;50.800;4.904;2022-07-23T01:04:58;14.07;;;7.55;;
11839;SDS011;5979;50.800;4.904;2022-07-23T01:07:24;7.25;;;6.55;;
11839;SDS011;5979;50.800;4.904;2022-07-23T01:09:50;7.20;;;6.35;;
11839;SDS011;5979;50.800;4.904;2022-07-23T01:12:17;7.75;;;7.03;;
11839;SDS011;5979;50.800;4.904;2022-07-23T01:14:43;11.27;;;7.47;;
11839;SDS011;5979;50.800;4.904;2022-07-23T01:17:08;10.50;;;7.65;;
11839;SDS011;5979;50.800;4.904;2022-07-23T01:19:34;10.20;;;7.03;;
11839;SDS011;5979;50.800;4.904;2022-07-23T01:22:01;8.68;;;6.78;;
11839;SDS011;5979;50.800;4.904;2022-07-23T01:24:29;8.70;;;7.25;;
11839;SDS011;5979;50.800;4.904;2022-07-23T01:26:55;11.25;;;7.28;;
11839;SDS011;5979;50.800;4.904;2022-07-23T01:29:21;9.32;;;7.03;;
11839;SDS011;5979;50.800;4.904;2022-07-23T01:31:47;8.75;;;7.35;;
11839;SDS011;5979;50.800;4.904;2022-07-23T01:34:13;6.53;;;5.93;;
11839;SDS011;5979;50.800;4.904;2022-07-23T01:36:38;6.70;;;6.07;;
11839;SDS011;5979;50.800;4.904;2022-07-23T01:39:05;7.53;;;6.65;;
11839;SDS011;5979;50.800;4.904;2022-07-23T01:41:31;7.18;;;6.55;;
11839;SDS011;5979;50.800;4.904;2022-07-23T01:43:57;7.35;;;6.65;;
11839;SDS011;5979;50.800;4.904;2022-07-23T01:46:23;7.93;;;7.20;;
11839;SDS011;5979;50.800;4.904;2022-07-23T01:48:49;9.48;;;7.38;;
11839;SDS011;5979;50.800;4.904;2022-07-23T01:51:15;7.97;;;7.03;;
11839;SDS011;5979;50.800;4.904;2022-07-23T01:53:40;8.68;;;6.88;;
11839;SDS011;5979;50.800;4.904;2022-07-23T01:56:06;8.75;;;7.18;;
11839;SDS011;5979;50.800;4.904;2022-07-23T01:58:32;7.72;;;7.05;;
11839;SDS011;5979;50.800;4.904;2022-07-23T02:00:58;8.02;;;7.03;;
11839;SDS011;5979;50.800;4.904;2022-07-23T02:03:23;7.90;;;7.10;;
11839;SDS011;5979;50.800;4.904;2022-07-23T02:05:49;7.72;;;6.93;;
11839;SDS011;5979;50.800;4.904;2022-07-23T02:08:15;7.78;;;6.97;;
11839;SDS011;5979;50.800;4.904;2022-07-23T02:10:41;7.57;;;6.82;;
11839;SDS011;5979;50.800;4.904;2022-07-23T02:13:07;9.88;;;7.22;;
11839;SDS011;5979;50.800;4.904;2022-07-23T02:15:33;8.52;;;7.00;;
11839;SDS011;5979;50.800;4.904;2022-07-23T02:17:59;8.85;;;7.43;;
11839;SDS011;5979;50.800;4.904;2022-07-23T02:20:24;8.30;;;7.45;;
11839;SDS011;5979;50.800;4.904;2022-07-23T02:22:50;7.85;;;7.07;;
11839;SDS011;5979;50.800;4.904;2022-07-23T02:25:16;10.10;;;7.43;;
11839;SDS011;5979;50.800;4.904;2022-07-23T02:27:42;8.93;;;8.02;;
11839;SDS011;5979;50.800;4.904;2022-07-23T02:30:08;8.38;;;7.57;;
11839;SDS011;5979;50.800;4.904;2022-07-23T02:32:34;10.35;;;8.38;;
11839;SDS011;5979;50.800;4.904;2022-07-23T02:35:00;8.18;;;7.00;;
11839;SDS011;5979;50.800;4.904;2022-07-23T02:37:26;10.43;;;6.85;;
11839;SDS011;5979;50.800;4.904;2022-07-23T02:39:52;8.55;;;7.07;;
11839;SDS011;5979;50.800;4.904;2022-07-23T02:42:18;10.30;;;7.00;;
11839;SDS011;5979;50.800;4.904;2022-07-23T02:44:43;13.77;;;7.72;;
11839;SDS011;5979;50.800;4.904;2022-07-23T02:47:09;8.45;;;6.93;;
11839;SDS011;5979;50.800;4.904;2022-07-23T02:49:35;12.45;;;7.28;;
11839;SDS011;5979;50.800;4.904;2022-07-23T02:52:01;11.82;;;8.02;;
11839;SDS011;5979;50.800;4.904;2022-07-23T02:54:27;10.05;;;7.07;;
11839;SDS011;5979;50.800;4.904;2022-07-23T02:56:53;13.55;;;7.50;;
11839;SDS011;5979;50.800;4.904;2022-07-23T02:59:18;11.27;;;7.68;;
11839;SDS011;5979;50.800;4.904;2022-07-23T03:01:44;11.95;;;7.07;;
11839;SDS011;5979;50.800;4.904;2022-07-23T03:04:10;13.05;;;7.43;;
11839;SDS011;5979;50.800;4.904;2022-07-23T03:06:36;13.55;;;7.15;;
11839;SDS011;5979;50.800;4.904;2022-07-23T03:09:02;9.35;;;7.43;;
11839;SDS011;5979;50.800;4.904;2022-07-23T03:11:29;13.65;;;7.35;;
11839;SDS011;5979;50.800;4.904;2022-07-23T03:13:55;11.27;;;7.57;;
11839;SDS011;5979;50.800;4.904;2022-07-23T03:16:20;14.07;;;8.20;;
11839;SDS011;5979;50.800;4.904;2022-07-23T03:18:46;9.43;;;6.78;;
11839;SDS011;5979;50.800;4.904;2022-07-23T03:21:12;9.00;;;6.50;;
11839;SDS011;5979;50.800;4.904;2022-07-23T03:23:37;12.40;;;8.35;;
11839;SDS011;5979;50.800;4.904;2022-07-23T03:26:03;13.15;;;7.63;;
11839;SDS011;5979;50.800;4.904;2022-07-23T03:28:29;11.70;;;7.03;;
11839;SDS011;5979;50.800;4.904;2022-07-23T03:30:56;11.15;;;7.82;;
11839;SDS011;5979;50.800;4.904;2022-07-23T03:33:21;7.55;;;6.50;;
11839;SDS011;5979;50.800;4.904;2022-07-23T03:35:47;8.30;;;7.50;;
11839;SDS011;5979;50.800;4.904;2022-07-23T03:38:16;7.97;;;7.13;;
11839;SDS011;5979;50.800;4.904;2022-07-23T03:40:42;13.90;;;7.50;;
11839;SDS011;5979;50.800;4.904;2022-07-23T03:43:07;10.05;;;7.10;;
11839;SDS011;5979;50.800;4.904;2022-07-23T03:45:33;7.80;;;7.10;;
11839;SDS011;5979;50.800;4.904;2022-07-23T03:47:59;7.53;;;6.28;;
11839;SDS011;5979;50.800;4.904;2022-07-23T03:50:25;9.55;;;6.43;;
11839;SDS011;5979;50.800;4.904;2022-07-23T03:52:50;9.60;;;6.68;;
11839;SDS011;5979;50.800;4.904;2022-07-23T03:55:16;16.42;;;7.28;;
11839;SDS011;5979;50.800;4.904;2022-07-23T03:57:42;12.88;;;6.65;;
11839;SDS011;5979;50.800;4.904;2022-07-23T04:00:08;9.70;;;7.10;;
11839;SDS011;5979;50.800;4.904;2022-07-23T04:02:36;11.38;;;7.25;;
11839;SDS011;5979;50.800;4.904;2022-07-23T04:05:02;8.32;;;6.90;;
11839;SDS011;5979;50.800;4.904;2022-07-23T04:07:29;8.85;;;5.93;;
11839;SDS011;5979;50.800;4.904;2022-07-23T04:09:55;13.82;;;7.28;;
11839;SDS011;5979;50.800;4.904;2022-07-23T04:12:20;10.35;;;6.05;;
11839;SDS011;5979;50.800;4.904;2022-07-23T04:14:46;11.38;;;5.90;;
11839;SDS011;5979;50.800;4.904;2022-07-23T04:17:12;17.05;;;7.03;;
11839;SDS011;5979;50.800;4.904;2022-07-23T04:19:37;12.15;;;6.65;;
11839;SDS011;5979;50.800;4.904;2022-07-23T04:22:06;10.10;;;6.68;;
11839;SDS011;5979;50.800;4.904;2022-07-23T04:24:32;12.65;;;7.20;;
11839;SDS011;5979;50.800;4.904;2022-07-23T04:26:58;7.55;;;6.82;;
11839;SDS011;5979;50.800;4.904;2022-07-23T04:29:24;9.07;;;6.47;;
11839;SDS011;5979;50.800;4.904;2022-07-23T04:31:50;8.00;;;6.47;;
11839;SDS011;5979;50.800;4.904;2022-07-23T04:34:16;17.02;;;7.28;;
11839;SDS011;5979;50.800;4.904;2022-07-23T04:36:42;9.48;;;7.05;;
11839;SDS011;5979;50.800;4.904;2022-07-23T04:39:07;10.00;;;7.38;;
11839;SDS011;5979;50.800;4.904;2022-07-23T04:41:33;6.95;;;6.38;;
11839;SDS011;5979;50.800;4.904;2022-07-23T04:43:59;12.30;;;6.65;;
11839;SDS011;5979;50.800;4.904;2022-07-23T04:46:25;8.30;;;6.55;;
11839;SDS011;5979;50.800;4.904;2022-07-23T04:48:51;15.23;;;8.25;;
11839;SDS011;5979;50.800;4.904;2022-07-23T04:51:16;11.77;;;7.43;;
11839;SDS011;5979;50.800;4.904;2022-07-23T04:53:42;9.82;;;7.45;;
11839;SDS011;5979;50.800;4.904;2022-07-23T04:56:07;12.63;;;6.68;;
11839;SDS011;5979;50.800;4.904;2022-07-23T04:58:33;13.98;;;7.07;;
11839;SDS011;5979;50.800;4.904;2022-07-23T05:00:59;11.57;;;6.65;;
11839;SDS011;5979;50.800;4.904;2022-07-23T05:03:24;10.63;;;6.40;;
11839;SDS011;5979;50.800;4.904;2022-07-23T05:05:50;12.32;;;6.53;;
11839;SDS011;5979;50.800;4.904;2022-07-23T05:08:16;6.25;;;5.50;;
11839;SDS011;5979;50.800;4.904;2022-07-23T05:10:42;16.85;;;6.53;;
11839;SDS011;5979;50.800;4.904;2022-07-23T05:13:07;13.23;;;6.65;;
11839;SDS011;5979;50.800;4.904;2022-07-23T05:15:33;15.10;;;7.35;;
11839;SDS011;5979;50.800;4.904;2022-07-23T05:17:59;15.75;;;7.47;;
11839;SDS011;5979;50.800;4.904;2022-07-23T05:20:24;11.73;;;7.53;;
11839;SDS011;5979;50.800;4.904;2022-07-23T05:22:50;15.13;;;7.50;;
11839;SDS011;5979;50.800;4.904;2022-07-23T05:25:16;15.00;;;7.68;;
11839;SDS011;5979;50.800;4.904;2022-07-23T05:27:42;9.48;;;6.75;;
11839;SDS011;5979;50.800;4.904;2022-07-23T05:30:07;12.18;;;7.60;;
11839;SDS011;5979;50.800;4.904;2022-07-23T05:32:33;13.70;;;7.97;;
11839;SDS011;5979;50.800;4.904;2022-07-23T05:35:01;15.05;;;9.43;;
11839;SDS011;5979;50.800;4.904;2022-07-23T05:37:27;12.65;;;9.10;;
11839;SDS011;5979;50.800;4.904;2022-07-23T05:39:53;10.85;;;7.68;;
11839;SDS011;5979;50.800;4.904;2022-07-23T05:42:19;9.65;;;8.68;;
11839;SDS011;5979;50.800;4.904;2022-07-23T05:44:44;8.45;;;7.72;;
11839;SDS011;5979;50.800;4.904;2022-07-23T05:47:10;11.18;;;8.55;;
11839;SDS011;5979;50.800;4.904;2022-07-23T05:49:36;9.57;;;8.57;;
11839;SDS011;5979;50.800;4.904;2022-07-23T05:52:04;12.43;;;8.02;;
11839;SDS011;5979;50.800;4.904;2022-07-23T05:54:30;11.75;;;8.63;;
11839;SDS011;5979;50.800;4.904;2022-07-23T05:56:56;8.43;;;7.60;;
11839;SDS011;5979;50.800;4.904;2022-07-23T05:59:21;7.13;;;6.50;;
11839;SDS011;5979;50.800;4.904;2022-07-23T06:01:47;7.82;;;6.63;;
11839;SDS011;5979;50.800;4.904;2022-07-23T06:04:13;10.90;;;8.35;;
11839;SDS011;5979;50.800;4.904;2022-07-23T06:06:38;11.82;;;9.18;;
11839;SDS011;5979;50.800;4.904;2022-07-23T06:09:04;8.40;;;7.65;;
11839;SDS011;5979;50.800;4.904;2022-07-23T06:11:30;7.72;;;7.13;;
11839;SDS011;5979;50.800;4.904;2022-07-23T06:13:55;9.50;;;7.72;;
11839;SDS011;5979;50.800;4.904;2022-07-23T06:16:21;9.98;;;8.18;;
11839;SDS011;5979;50.800;4.904;2022-07-23T06:18:47;7.75;;;6.85;;
11839;SDS011;5979;50.800;4.904;2022-07-23T06:21:12;8.25;;;7.55;;
11839;SDS011;5979;50.800;4.904;2022-07-23T06:23:38;7.70;;;7.03;;
11839;SDS011;5979;50.800;4.904;2022-07-23T06:26:03;9.23;;;8.32;;
11839;SDS011;5979;50.800;4.904;2022-07-23T06:28:29;7.97;;;7.15;;
11839;SDS011;5979;50.800;4.904;2022-07-23T06:30:55;7.05;;;6.55;;
11839;SDS011;5979;50.800;4.904;2022-07-23T06:33:20;7.70;;;7.10;;
11839;SDS011;5979;50.800;4.904;2022-07-23T06:35:46;7.80;;;6.75;;
11839;SDS011;5979;50.800;4.904;2022-07-23T06:38:12;8.38;;;7.57;;
11839;SDS011;5979;50.800;4.904;2022-07-23T06:40:38;7.20;;;6.68;;
11839;SDS011;5979;50.800;4.904;2022-07-23T06:43:03;10.40;;;8.13;;
11839;SDS011;5979;50.800;4.904;2022-07-23T06:45:29;7.93;;;7.18;;
11839;SDS011;5979;50.800;4.904;2022-07-23T06:47:54;8.50;;;7.75;;
11839;SDS011;5979;50.800;4.904;2022-07-23T06:50:20;8.10;;;7.38;;
11839;SDS011;5979;50.800;4.904;2022-07-23T06:52:46;8.82;;;7.95;;
11839;SDS011;5979;50.800;4.904;2022-07-23T06:55:11;8.65;;;7.95;;
11839;SDS011;5979;50.800;4.904;2022-07-23T06:57:37;9.07;;;8.00;;
11839;SDS011;5979;50.800;4.904;2022-07-23T07:00:03;8.20;;;7.45;;
11839;SDS011;5979;50.800;4.904;2022-07-23T07:02:29;7.70;;;6.97;;
11839;SDS011;5979;50.800;4.904;2022-07-23T07:04:55;11.27;;;7.55;;
11839;SDS011;5979;50.800;4.904;2022-07-23T07:07:21;7.65;;;7.05;;
11839;SDS011;5979;50.800;4.904;2022-07-23T07:09:46;9.75;;;7.93;;
11839;SDS011;5979;50.800;4.904;2022-07-23T07:12:12;8.45;;;7.30;;
11839;SDS011;5979;50.800;4.904;2022-07-23T07:14:38;9.07;;;8.38;;
11839;SDS011;5979;50.800;4.904;2022-07-23T07:17:03;8.98;;;8.07;;
11839;SDS011;5979;50.800;4.904;2022-07-23T07:19:29;6.65;;;6.05;;
11839;SDS011;5979;50.800;4.904;2022-07-23T07:21:55;10.70;;;7.50;;
11839;SDS011;5979;50.800;4.904;2022-07-23T07:24:21;9.07;;;8.20;;
11839;SDS011;5979;50.800;4.904;2022-07-23T07:26:46;10.35;;;8.23;;
11839;SDS011;5979;50.800;4.904;2022-07-23T07:29:15;7.68;;;6.95;;
11839;SDS011;5979;50.800;4.904;2022-07-23T07:31:41;9.40;;;8.18;;
11839;SDS011;5979;50.800;4.904;2022-07-23T07:34:07;6.50;;;5.90;;
11839;SDS011;5979;50.800;4.904;2022-07-23T07:36:33;8.13;;;7.28;;
11839;SDS011;5979;50.800;4.904;2022-07-23T07:38:59;9.68;;;7.97;;
11839;SDS011;5979;50.800;4.904;2022-07-23T07:41:25;8.70;;;7.90;;
11839;SDS011;5979;50.800;4.904;2022-07-23T07:43:51;7.90;;;7.20;;
11839;SDS011;5979;50.800;4.904;2022-07-23T07:46:17;8.60;;;7.90;;
11839;SDS011;5979;50.800;4.904;2022-07-23T07:48:43;7.47;;;6.90;;
11839;SDS011;5979;50.800;4.904;2022-07-23T07:51:09;7.53;;;6.82;;
11839;SDS011;5979;50.800;4.904;2022-07-23T07:53:34;7.57;;;6.82;;
11839;SDS011;5979;50.800;4.904;2022-07-23T07:56:00;8.57;;;7.82;;
11839;SDS011;5979;50.800;4.904;2022-07-23T07:58:26;8.48;;;7.80;;
11839;SDS011;5979;50.800;4.904;2022-07-23T08:00:51;8.35;;;7.60;;
11839;SDS011;5979;50.800;4.904;2022-07-23T08:03:17;7.38;;;6.72;;
11839;SDS011;5979;50.800;4.904;2022-07-23T08:05:43;6.82;;;6.20;;
11839;SDS011;5979;50.800;4.904;2022-07-23T08:08:08;7.70;;;7.00;;
11839;SDS011;5979;50.800;4.904;2022-07-23T08:10:40;7.25;;;6.55;;
11839;SDS011;5979;50.800;4.904;2022-07-23T08:13:06;8.98;;;8.18;;
11839;SDS011;5979;50.800;4.904;2022-07-23T08:15:32;10.85;;;9.85;;
11839;SDS011;5979;50.800;4.904;2022-07-23T08:17:57;10.80;;;8.55;;
11839;SDS011;5979;50.800;4.904;2022-07-23T08:20:24;9.85;;;8.85;;
11839;SDS011;5979;50.800;4.904;2022-07-23T08:22:51;8.85;;;7.95;;
11839;SDS011;5979;50.800;4.904;2022-07-23T08:25:20;9.65;;;8.77;;
11839;SDS011;5979;50.800;4.904;2022-07-23T08:27:53;9.70;;;8.80;;
11839;SDS011;5979;50.800;4.904;2022-07-23T08:30:19;8.80;;;8.10;;
11839;SDS011;5979;50.800;4.904;2022-07-23T08:32:56;11.45;;;7.68;;
11839;SDS011;5979;50.800;4.904;2022-07-23T08:35:43;8.55;;;7.80;;
11839;SDS011;5979;50.800;4.904;2022-07-23T08:38:11;10.45;;;8.00;;
11839;SDS011;5979;50.800;4.904;2022-07-23T08:40:45;7.28;;;6.57;;
11839;SDS011;5979;50.800;4.904;2022-07-23T08:43:16;10.10;;;7.93;;
11839;SDS011;5979;50.800;4.904;2022-07-23T08:45:44;6.88;;;6.28;;
11839;SDS011;5979;50.800;4.904;2022-07-23T08:48:12;8.85;;;6.75;;
11839;SDS011;5979;50.800;4.904;2022-07-23T08:50:40;7.00;;;6.25;;
11839;SDS011;5979;50.800;4.904;2022-07-23T08:53:08;9.50;;;7.80;;
11839;SDS011;5979;50.800;4.904;2022-07-23T08:55:35;9.63;;;6.90;;
11839;SDS011;5979;50.800;4.904;2022-07-23T08:58:00;7.97;;;7.22;;
11839;SDS011;5979;50.800;4.904;2022-07-23T09:00:26;7.15;;;6.55;;
11839;SDS011;5979;50.800;4.904;2022-07-23T09:02:52;8.05;;;7.38;;
11839;SDS011;5979;50.800;4.904;2022-07-23T09:05:18;7.20;;;6.50;;
11839;SDS011;5979;50.800;4.904;2022-07-23T09:18:34;9.02;;;6.57;;
11839;SDS011;5979;50.800;4.904;2022-07-23T09:21:07;9.60;;;6.88;;
11839;SDS011;5979;50.800;4.904;2022-07-23T09:23:40;8.23;;;6.63;;
11839;SDS011;5979;50.800;4.904;2022-07-23T09:26:23;6.63;;;5.93;;
11839;SDS011;5979;50.800;4.904;2022-07-23T09:28:53;6.93;;;6.13;;
11839;SDS011;5979;50.800;4.904;2022-07-23T09:31:23;8.35;;;6.20;;
11839;SDS011;5979;50.800;4.904;2022-07-23T09:33:50;8.68;;;7.05;;
11839;SDS011;5979;50.800;4.904;2022-07-23T09:36:27;7.85;;;7.03;;
11839;SDS011;5979;50.800;4.904;2022-07-23T09:38:54;9.00;;;6.78;;
11839;SDS011;5979;50.800;4.904;2022-07-23T09:41:19;7.00;;;6.38;;
11839;SDS011;5979;50.800;4.904;2022-07-23T09:43:45;10.30;;;7.60;;
11839;SDS011;5979;50.800;4.904;2022-07-23T09:46:21;7.20;;;6.50;;
11839;SDS011;5979;50.800;4.904;2022-07-23T09:48:55;7.93;;;6.65;;
11839;SDS011;5979;50.800;4.904;2022-07-23T09:51:21;6.90;;;5.70;;
11839;SDS011;5979;50.800;4.904;2022-07-23T09:53:57;8.10;;;5.80;;
11839;SDS011;5979;50.800;4.904;2022-07-23T09:56:23;6.22;;;5.60;;
11839;SDS011;5979;50.800;4.904;2022-07-23T09:58:52;7.40;;;6.70;;
11839;SDS011;5979;50.800;4.904;2022-07-23T10:01:36;5.25;;;4.80;;
11839;SDS011;5979;50.800;4.904;2022-07-23T10:04:03;5.70;;;5.22;;
11839;SDS011;5979;50.800;4.904;2022-07-23T10:06:30;5.47;;;4.88;;
11839;SDS011;5979;50.800;4.904;2022-07-23T10:08:56;7.18;;;4.72;;
11839;SDS011;5979;50.800;4.904;2022-07-23T10:11:24;5.40;;;4.88;;
11839;SDS011;5979;50.800;4.904;2022-07-23T10:13:53;6.75;;;4.40;;
11839;SDS011;5979;50.800;4.904;2022-07-23T10:16:27;4.75;;;4.32;;
11839;SDS011;5979;50.800;4.904;2022-07-23T10:18:53;5.47;;;5.07;;
11839;SDS011;5979;50.800;4.904;2022-07-23T10:26:44;4.40;;;4.10;;
11839;SDS011;5979;50.800;4.904;2022-07-23T10:29:58;4.03;;;3.72;;
11839;SDS011;5979;50.800;4.904;2022-07-23T10:37:47;3.70;;;3.40;;
11839;SDS011;5979;50.800;4.904;2022-07-23T10:40:20;3.00;;;2.80;;
11839;SDS011;5979;50.800;4.904;2022-07-23T10:42:49;3.83;;;3.50;;
11839;SDS011;5979;50.800;4.904;2022-07-23T10:51:05;3.85;;;2.80;;
11839;SDS011;5979;50.800;4.904;2022-07-23T10:59:23;3.28;;;2.22;;
11839;SDS011;5979;50.800;4.904;2022-07-23T11:01:48;3.08;;;2.80;;
11839;SDS011;5979;50.800;4.904;2022-07-23T11:04:14;3.05;;;2.75;;
11839;SDS011;5979;50.800;4.904;2022-07-23T11:09:25;2.88;;;2.67;;
11839;SDS011;5979;50.800;4.904;2022-07-23T11:17:38;2.67;;;2.50;;
11839;SDS011;5979;50.800;4.904;2022-07-23T11:20:12;2.95;;;2.75;;
11839;SDS011;5979;50.800;4.904;2022-07-23T11:25:13;3.00;;;2.25;;
11839;SDS011;5979;50.800;4.904;2022-07-23T11:27:53;2.38;;;2.28;;
11839;SDS011;5979;50.800;4.904;2022-07-23T11:32:51;2.00;;;1.90;;
11839;SDS011;5979;50.800;4.904;2022-07-23T11:35:27;2.40;;;2.20;;
11839;SDS011;5979;50.800;4.904;2022-07-23T11:37:55;3.10;;;2.90;;
11839;SDS011;5979;50.800;4.904;2022-07-23T11:40:32;2.42;;;2.28;;
11839;SDS011;5979;50.800;4.904;2022-07-23T11:43:00;2.67;;;2.40;;
11839;SDS011;5979;50.800;4.904;2022-07-23T11:45:32;2.38;;;2.17;;
11839;SDS011;5979;50.800;4.904;2022-07-23T11:48:00;2.38;;;2.10;;
11839;SDS011;5979;50.800;4.904;2022-07-23T11:50:26;3.08;;;2.47;;
11839;SDS011;5979;50.800;4.904;2022-07-23T11:52:53;2.72;;;2.53;;
11839;SDS011;5979;50.800;4.904;2022-07-23T11:55:19;2.40;;;2.30;;
11839;SDS011;5979;50.800;4.904;2022-07-23T11:57:46;2.70;;;2.50;;
11839;SDS011;5979;50.800;4.904;2022-07-23T12:00:13;2.28;;;2.17;;
11839;SDS011;5979;50.800;4.904;2022-07-23T12:02:45;2.42;;;2.22;;
11839;SDS011;5979;50.800;4.904;2022-07-23T12:05:20;2.40;;;2.30;;
11839;SDS011;5979;50.800;4.904;2022-07-23T12:07:49;2.08;;;1.98;;
11839;SDS011;5979;50.800;4.904;2022-07-23T12:15:16;2.40;;;2.30;;
11839;SDS011;5979;50.800;4.904;2022-07-23T12:17:44;2.47;;;2.35;;
11839;SDS011;5979;50.800;4.904;2022-07-23T12:20:24;2.47;;;2.38;;
11839;SDS011;5979;50.800;4.904;2022-07-23T12:22:56;2.55;;;2.35;;
11839;SDS011;5979;50.800;4.904;2022-07-23T12:25:25;3.10;;;2.60;;
11839;SDS011;5979;50.800;4.904;2022-07-23T12:30:34;2.92;;;2.65;;
11839;SDS011;5979;50.800;4.904;2022-07-23T12:33:14;2.30;;;2.10;;
11839;SDS011;5979;50.800;4.904;2022-07-23T12:35:49;2.40;;;2.30;;
11839;SDS011;5979;50.800;4.904;2022-07-23T12:38:16;2.40;;;2.30;;
11839;SDS011;5979;50.800;4.904;2022-07-23T12:40:46;2.55;;;2.33;;
11839;SDS011;5979;50.800;4.904;2022-07-23T12:43:22;2.40;;;2.30;;
11839;SDS011;5979;50.800;4.904;2022-07-23T12:45:49;2.53;;;2.42;;
11839;SDS011;5979;50.800;4.904;2022-07-23T12:48:18;3.15;;;2.85;;
11839;SDS011;5979;50.800;4.904;2022-07-23T12:50:49;2.42;;;2.22;;
11839;SDS011;5979;50.800;4.904;2022-07-23T12:53:16;2.38;;;1.92;;
11839;SDS011;5979;50.800;4.904;2022-07-23T12:55:44;2.63;;;2.35;;
11839;SDS011;5979;50.800;4.904;2022-07-23T12:58:18;2.85;;;2.65;;
11839;SDS011;5979;50.800;4.904;2022-07-23T13:03:25;3.35;;;3.08;;
11839;SDS011;5979;50.800;4.904;2022-07-23T13:06:06;2.60;;;2.50;;
11839;SDS011;5979;50.800;4.904;2022-07-23T13:08:37;2.60;;;2.50;;
11839;SDS011;5979;50.800;4.904;2022-07-23T13:11:05;2.97;;;2.70;;
11839;SDS011;5979;50.800;4.904;2022-07-23T13:13:32;2.70;;;2.50;;
11839;SDS011;5979;50.800;4.904;2022-07-23T13:15:59;2.30;;;2.20;;
11839;SDS011;5979;50.800;4.904;2022-07-23T13:18:25;3.15;;;2.95;;
11839;SDS011;5979;50.800;4.904;2022-07-23T13:20:51;3.30;;;3.03;;
11839;SDS011;5979;50.800;4.904;2022-07-23T13:23:17;3.90;;;3.00;;
11839;SDS011;5979;50.800;4.904;2022-07-23T13:25:44;2.78;;;2.58;;
11839;SDS011;5979;50.800;4.904;2022-07-23T13:28:11;3.20;;;3.00;;
11839;SDS011;5979;50.800;4.904;2022-07-23T13:30:38;3.20;;;2.90;;
11839;SDS011;5979;50.800;4.904;2022-07-23T13:33:04;5.55;;;2.88;;
11839;SDS011;5979;50.800;4.904;2022-07-23T13:35:31;3.50;;;2.90;;
11839;SDS011;5979;50.800;4.904;2022-07-23T13:37:58;3.90;;;2.92;;
11839;SDS011;5979;50.800;4.904;2022-07-23T13:40:23;3.13;;;2.92;;
11839;SDS011;5979;50.800;4.904;2022-07-23T13:42:49;3.05;;;2.95;;
11839;SDS011;5979;50.800;4.904;2022-07-23T13:45:15;3.05;;;2.80;;
11839;SDS011;5979;50.800;4.904;2022-07-23T13:47:41;3.47;;;3.28;;
11839;SDS011;5979;50.800;4.904;2022-07-23T13:50:06;3.42;;;3.13;;
11839;SDS011;5979;50.800;4.904;2022-07-23T13:52:32;3.50;;;3.15;;
11839;SDS011;5979;50.800;4.904;2022-07-23T13:54:59;3.50;;;3.30;;
11839;SDS011;5979;50.800;4.904;2022-07-23T13:57:29;3.50;;;3.20;;
11839;SDS011;5979;50.800;4.904;2022-07-23T13:59:55;3.58;;;3.28;;
11839;SDS011;5979;50.800;4.904;2022-07-23T14:02:21;3.72;;;3.40;;
11839;SDS011;5979;50.800;4.904;2022-07-23T14:04:47;3.10;;;3.00;;
11839;SDS011;5979;50.800;4.904;2022-07-23T14:07:13;3.28;;;3.08;;
11839;SDS011;5979;50.800;4.904;2022-07-23T14:09:39;3.03;;;2.90;;
11839;SDS011;5979;50.800;4.904;2022-07-23T14:12:04;3.50;;;3.20;;
11839;SDS011;5979;50.800;4.904;2022-07-23T14:14:31;3.20;;;2.95;;
11839;SDS011;5979;50.800;4.904;2022-07-23T14:16:57;3.53;;;3.33;;
11839;SDS011;5979;50.800;4.904;2022-07-23T14:19:23;3.70;;;3.40;;
11839;SDS011;5979;50.800;4.904;2022-07-23T14:21:48;3.45;;;3.20;;
11839;SDS011;5979;50.800;4.904;2022-07-23T14:24:15;3.33;;;3.08;;
11839;SDS011;5979;50.800;4.904;2022-07-23T14:26:41;4.57;;;3.28;;
11839;SDS011;5979;50.800;4.904;2022-07-23T14:29:07;3.67;;;3.35;;
11839;SDS011;5979;50.800;4.904;2022-07-23T14:31:32;3.40;;;3.20;;
11839;SDS011;5979;50.800;4.904;2022-07-23T14:33:58;3.60;;;3.40;;
11839;SDS011;5979;50.800;4.904;2022-07-23T14:36:24;3.90;;;3.60;;
11839;SDS011;5979;50.800;4.904;2022-07-23T14:38:50;3.17;;;3.03;;
11839;SDS011;5979;50.800;4.904;2022-07-23T14:41:16;3.50;;;3.20;;
11839;SDS011;5979;50.800;4.904;2022-07-23T14:43:42;3.55;;;3.35;;
11839;SDS011;5979;50.800;4.904;2022-07-23T14:46:08;3.47;;;3.17;;
11839;SDS011;5979;50.800;4.904;2022-07-23T14:48:34;3.67;;;3.40;;
11839;SDS011;5979;50.800;4.904;2022-07-23T14:51:01;3.75;;;3.47;;
11839;SDS011;5979;50.800;4.904;2022-07-23T14:53:26;3.47;;;3.28;;
11839;SDS011;5979;50.800;4.904;2022-07-23T14:55:52;3.50;;;3.30;;
11839;SDS011;5979;50.800;4.904;2022-07-23T14:58:18;3.72;;;3.53;;
11839;SDS011;5979;50.800;4.904;2022-07-23T15:00:43;3.60;;;3.40;;
11839;SDS011;5979;50.800;4.904;2022-07-23T15:03:09;3.25;;;3.10;;
11839;SDS011;5979;50.800;4.904;2022-07-23T15:05:34;4.00;;;3.70;;
11839;SDS011;5979;50.800;4.904;2022-07-23T15:08:00;4.20;;;3.90;;
11839;SDS011;5979;50.800;4.904;2022-07-23T15:10:26;3.67;;;3.47;;
11839;SDS011;5979;50.800;4.904;2022-07-23T15:12:52;4.03;;;3.83;;
11839;SDS011;5979;50.800;4.904;2022-07-23T15:15:17;4.28;;;3.97;;
11839;SDS011;5979;50.800;4.904;2022-07-23T15:17:43;3.63;;;3.47;;
11839;SDS011;5979;50.800;4.904;2022-07-23T15:20:09;3.67;;;3.55;;
11839;SDS011;5979;50.800;4.904;2022-07-23T15:22:35;4.10;;;3.90;;
11839;SDS011;5979;50.800;4.904;2022-07-23T15:25:00;4.13;;;3.83;;
11839;SDS011;5979;50.800;4.904;2022-07-23T15:27:26;3.63;;;3.42;;
11839;SDS011;5979;50.800;4.904;2022-07-23T15:29:52;4.10;;;3.90;;
11839;SDS011;5979;50.800;4.904;2022-07-23T15:32:18;4.00;;;3.67;;
11839;SDS011;5979;50.800;4.904;2022-07-23T15:34:44;3.80;;;3.50;;
11839;SDS011;5979;50.800;4.904;2022-07-23T15:37:10;4.20;;;3.92;;
11839;SDS011;5979;50.800;4.904;2022-07-23T15:39:35;4.07;;;3.67;;
11839;SDS011;5979;50.800;4.904;2022-07-23T15:42:01;3.70;;;3.50;;
11839;SDS011;5979;50.800;4.904;2022-07-23T15:44:27;4.80;;;3.90;;
11839;SDS011;5979;50.800;4.904;2022-07-23T15:46:53;3.92;;;3.72;;
11839;SDS011;5979;50.800;4.904;2022-07-23T15:49:20;4.07;;;3.78;;
11839;SDS011;5979;50.800;4.904;2022-07-23T15:51:46;4.57;;;4.10;;
11839;SDS011;5979;50.800;4.904;2022-07-23T15:54:12;4.53;;;4.10;;